createdAt,value
2018-03-27T00:00:51.509Z,99.90
2018-03-27T00:03:19.886Z,99.90
2018-03-27T00:05:48.995Z,99.90
2018-03-27T00:08:17.298Z,99.90
2018-03-27T00:10:45.678Z,99.90
2018-03-27T00:13:13.979Z,99.90
2018-03-27T00:15:42.314Z,99.90
2018-03-27T00:18:10.621Z,99.90
2018-03-27T00:20:39.042Z,99.90
2018-03-27T00:23:08.125Z,99.90
2018-03-27T00:25:37.246Z,99.90
2018-03-27T00:28:18.081Z,99.90
2018-03-27T00:30:58.259Z,99.90
2018-03-27T00:33:38.469Z,99.90
2018-03-27T00:36:18.653Z,99.90
2018-03-27T00:38:59.499Z,99.90
2018-03-27T00:55:05.394Z,99.90
2018-03-27T00:57:33.728Z,99.90
2018-03-27T01:00:02.020Z,99.90
2018-03-27T01:02:30.514Z,99.90
2018-03-27T01:05:04.516Z,99.90
2018-03-27T01:07:32.901Z,99.90
2018-03-27T01:10:01.218Z,99.90
2018-03-27T01:12:29.585Z,99.90
2018-03-27T01:14:57.882Z,99.90
2018-03-27T01:17:26.234Z,99.90
2018-03-27T01:19:54.546Z,99.90
2018-03-27T01:22:22.891Z,99.90
2018-03-27T01:24:51.195Z,99.90
2018-03-27T01:27:19.607Z,99.90
2018-03-27T01:29:47.899Z,99.90
2018-03-27T01:32:16.266Z,99.90
2018-03-27T01:34:45.390Z,99.90
2018-03-27T01:37:13.734Z,99.90
2018-03-27T01:39:42.801Z,99.90
2018-03-27T01:42:11.103Z,99.90
2018-03-27T01:44:39.434Z,99.90
2018-03-27T01:47:07.746Z,99.90
2018-03-27T01:49:36.074Z,99.90
2018-03-27T01:52:04.373Z,99.90
2018-03-27T01:54:32.726Z,99.90
2018-03-27T01:57:01.013Z,99.90
2018-03-27T01:59:29.351Z,99.90
2018-03-27T02:01:57.667Z,99.90
2018-03-27T02:04:26.003Z,99.90
2018-03-27T02:06:54.345Z,99.90
2018-03-27T02:09:22.699Z,99.90
2018-03-27T02:11:56.687Z,99.90
2018-03-27T02:14:30.678Z,99.90
2018-03-27T02:17:04.671Z,99.90
2018-03-27T02:19:39.512Z,99.90
2018-03-27T02:22:07.311Z,99.90
2018-03-27T02:24:35.640Z,99.90
2018-03-27T02:27:03.938Z,99.90
2018-03-27T02:29:33.033Z,99.90
2018-03-27T02:32:01.381Z,99.90
2018-03-27T02:34:30.703Z,99.90
2018-03-27T02:36:59.766Z,99.90
2018-03-27T02:39:28.100Z,99.90
2018-03-27T02:41:56.431Z,99.90
2018-03-27T02:44:24.738Z,99.90
2018-03-27T02:46:53.077Z,99.90
2018-03-27T02:49:21.419Z,99.90
2018-03-27T02:51:49.843Z,99.90
2018-03-27T02:54:18.146Z,99.90
2018-03-27T02:56:46.493Z,99.90
2018-03-27T02:59:14.807Z,99.90
2018-03-27T03:01:43.143Z,99.90
2018-03-27T03:04:11.538Z,99.90
2018-03-27T03:06:40.638Z,99.90
2018-03-27T03:09:11.259Z,99.90
2018-03-27T03:11:39.603Z,99.90
2018-03-27T03:14:07.889Z,99.90
2018-03-27T03:16:36.222Z,99.90
2018-03-27T03:19:04.548Z,99.90
2018-03-27T03:21:32.903Z,99.90
2018-03-27T03:24:01.217Z,99.90
2018-03-27T03:26:29.557Z,99.90
2018-03-27T03:28:57.866Z,99.90
2018-03-27T03:31:26.203Z,99.90
2018-03-27T03:33:54.502Z,99.90
2018-03-27T03:36:22.962Z,99.90
2018-03-27T03:38:51.549Z,99.90
2018-03-27T03:41:19.847Z,99.90
2018-03-27T03:43:48.194Z,99.90
2018-03-27T03:46:16.505Z,99.90
2018-03-27T03:48:45.634Z,99.90
2018-03-27T03:51:13.942Z,99.90
2018-03-27T03:53:42.291Z,99.90
2018-03-27T03:56:10.600Z,99.90
2018-03-27T03:58:38.944Z,99.90
2018-03-27T04:01:07.262Z,99.90
2018-03-27T04:03:35.595Z,99.90
2018-03-27T04:06:04.658Z,99.90
2018-03-27T04:08:33.003Z,99.90
2018-03-27T04:11:02.075Z,99.90
2018-03-27T04:13:30.410Z,99.90
2018-03-27T04:15:59.498Z,99.90
2018-03-27T04:18:27.825Z,99.90
2018-03-27T04:20:57.206Z,99.90
2018-03-27T04:23:25.544Z,99.90
2018-03-27T04:25:53.854Z,99.90
2018-03-27T04:28:22.960Z,99.90
2018-03-27T04:30:51.274Z,99.90
2018-03-27T04:33:19.599Z,99.90
2018-03-27T04:35:48.668Z,99.90
2018-03-27T04:38:17.187Z,99.90
2018-03-27T04:40:45.539Z,99.90
2018-03-27T04:43:13.899Z,99.90
2018-03-27T04:45:42.283Z,99.90
2018-03-27T04:48:10.566Z,99.90
2018-03-27T04:50:38.917Z,99.90
2018-03-27T04:53:07.242Z,99.90
2018-03-27T04:55:36.353Z,99.90
2018-03-27T04:58:04.706Z,99.90
2018-03-27T05:00:33.814Z,99.90
2018-03-27T05:03:02.885Z,99.90
2018-03-27T05:05:31.263Z,99.90
2018-03-27T05:07:59.549Z,99.90
2018-03-27T05:10:28.666Z,99.90
2018-03-27T05:12:56.979Z,99.90
2018-03-27T05:15:25.325Z,99.90
2018-03-27T05:17:53.654Z,99.90
2018-03-27T05:20:21.987Z,99.90
2018-03-27T05:22:50.306Z,99.90
2018-03-27T05:25:18.647Z,99.90
2018-03-27T05:27:47.727Z,99.90
2018-03-27T05:30:16.066Z,99.90
2018-03-27T05:32:44.362Z,99.90
2018-03-27T05:35:13.562Z,99.90
2018-03-27T05:37:42.642Z,99.90
2018-03-27T05:40:11.956Z,99.90
2018-03-27T05:42:41.041Z,99.90
2018-03-27T05:45:10.114Z,99.90
2018-03-27T05:47:38.455Z,99.90
2018-03-27T05:50:06.767Z,99.90
2018-03-27T05:52:35.091Z,99.90
2018-03-27T05:55:03.395Z,99.90
2018-03-27T05:57:31.738Z,99.90
2018-03-27T06:00:00.086Z,99.90
2018-03-27T06:02:29.207Z,99.90
2018-03-27T06:04:57.538Z,99.90
2018-03-27T06:07:25.871Z,99.90
2018-03-27T06:09:54.223Z,99.90
2018-03-27T06:12:22.582Z,99.90
2018-03-27T06:14:52.425Z,99.90
2018-03-27T06:17:21.526Z,99.90
2018-03-27T06:19:49.843Z,99.90
2018-03-27T06:22:18.190Z,99.90
2018-03-27T06:24:46.498Z,99.90
2018-03-27T06:27:14.897Z,99.90
2018-03-27T06:29:43.279Z,99.90
2018-03-27T06:32:12.416Z,99.90
2018-03-27T06:34:40.752Z,99.90
2018-03-27T06:37:09.161Z,99.90
2018-03-27T06:39:38.226Z,99.90
2018-03-27T06:42:06.608Z,99.90
2018-03-27T06:44:35.007Z,99.90
2018-03-27T06:47:03.326Z,99.90
2018-03-27T06:49:31.663Z,99.90
2018-03-27T06:52:00.734Z,99.90
2018-03-27T06:54:29.090Z,99.90
2018-03-27T06:56:57.722Z,99.90
2018-03-27T06:59:26.820Z,99.90
2018-03-27T07:01:55.141Z,99.90
2018-03-27T07:04:23.510Z,99.90
2018-03-27T07:06:51.833Z,99.90
2018-03-27T07:09:20.989Z,99.90
2018-03-27T07:11:49.291Z,99.90
2018-03-27T07:14:17.611Z,99.90
2018-03-27T07:16:46.830Z,99.90
2018-03-27T07:19:15.192Z,99.90
2018-03-27T07:21:43.525Z,99.90
2018-03-27T07:24:12.679Z,99.90
2018-03-27T07:26:41.048Z,99.90
2018-03-27T07:29:09.347Z,99.90
2018-03-27T07:31:37.678Z,99.90
2018-03-27T07:34:06.038Z,99.90
2018-03-27T07:36:34.333Z,99.90
2018-03-27T07:39:02.692Z,99.90
2018-03-27T07:41:31.769Z,99.90
2018-03-27T07:44:01.497Z,99.90
2018-03-27T07:46:29.846Z,99.90
2018-03-27T07:48:58.947Z,99.90
2018-03-27T07:51:27.310Z,99.90
2018-03-27T07:53:55.635Z,99.90
2018-03-27T07:56:25.038Z,99.90
2018-03-27T07:58:53.412Z,99.90
2018-03-27T08:01:21.767Z,99.90
2018-03-27T08:03:50.080Z,99.90
2018-03-27T08:06:18.550Z,99.90
2018-03-27T08:08:46.926Z,99.90
2018-03-27T08:11:15.333Z,99.90
2018-03-27T08:13:43.631Z,99.90
2018-03-27T08:16:12.065Z,99.90
2018-03-27T08:18:40.506Z,99.90
2018-03-27T08:21:08.859Z,99.90
2018-03-27T08:23:37.982Z,99.90
2018-03-27T08:26:06.310Z,99.90
2018-03-27T08:28:34.617Z,99.90
2018-03-27T08:31:02.949Z,99.90
2018-03-27T08:33:31.273Z,99.90
2018-03-27T08:35:59.693Z,99.90
2018-03-27T08:38:28.073Z,99.90
2018-03-27T08:40:57.175Z,99.90
2018-03-27T08:43:25.542Z,99.90
2018-03-27T08:45:53.923Z,99.90
2018-03-27T08:48:23.006Z,99.90
2018-03-27T08:50:51.309Z,99.90
2018-03-27T08:53:20.389Z,99.90
2018-03-27T08:55:49.489Z,99.90
2018-03-27T08:58:17.884Z,99.90
2018-03-27T09:00:46.222Z,99.90
2018-03-27T09:03:14.602Z,99.90
2018-03-27T09:05:44.026Z,99.90
2018-03-27T09:08:12.406Z,99.90
2018-03-27T09:10:41.478Z,99.90
2018-03-27T09:13:09.979Z,99.90
2018-03-27T09:15:39.041Z,99.90
2018-03-27T09:18:08.266Z,99.90
2018-03-27T09:20:37.892Z,99.90
2018-03-27T09:23:06.260Z,99.90
2018-03-27T09:25:35.327Z,99.90
2018-03-27T09:28:03.652Z,99.90
2018-03-27T09:30:32.006Z,99.90
2018-03-27T09:33:00.351Z,99.90
2018-03-27T09:35:28.662Z,99.90
2018-03-27T09:37:57.028Z,99.90
2018-03-27T09:40:26.055Z,99.90
2018-03-27T09:42:54.434Z,99.90
2018-03-27T09:45:22.761Z,99.90
2018-03-27T09:47:51.106Z,99.90
2018-03-27T09:50:19.438Z,99.90
2018-03-27T09:52:48.498Z,99.90
2018-03-27T09:55:16.844Z,99.90
2018-03-27T09:57:45.143Z,99.90
2018-03-27T10:00:13.464Z,99.90
2018-03-27T10:02:42.529Z,99.90
2018-03-27T10:05:10.879Z,99.90
2018-03-27T10:07:39.180Z,99.90
2018-03-27T10:10:08.296Z,99.90
2018-03-27T10:12:36.586Z,99.90
2018-03-27T10:15:04.920Z,99.90
2018-03-27T10:17:33.246Z,99.90
2018-03-27T10:22:31.806Z,99.90
2018-03-27T10:25:00.158Z,99.90
2018-03-27T10:27:28.455Z,99.90
2018-03-27T10:29:56.788Z,99.90
2018-03-27T10:32:25.101Z,99.90
2018-03-27T10:34:53.430Z,99.90
2018-03-27T10:37:21.998Z,99.90
2018-03-27T10:39:51.099Z,99.90
2018-03-27T10:42:19.419Z,99.90
2018-03-27T10:44:47.734Z,99.80
2018-03-27T10:47:16.844Z,99.90
2018-03-27T10:49:45.223Z,99.90
2018-03-27T10:52:13.578Z,99.90
2018-03-27T10:54:41.887Z,99.90
2018-03-27T10:57:10.236Z,99.90
2018-03-27T10:59:38.535Z,99.90
2018-03-27T11:02:07.026Z,99.90
2018-03-27T11:04:35.381Z,99.90
2018-03-27T11:07:04.485Z,99.90
2018-03-27T11:09:32.888Z,99.90
2018-03-27T11:12:01.246Z,99.90
2018-03-27T11:14:30.154Z,99.70
2018-03-27T11:16:58.506Z,99.40
2018-03-27T11:19:26.834Z,98.80
2018-03-27T11:21:55.184Z,98.80
2018-03-27T11:24:23.494Z,98.20
2018-03-27T11:26:51.834Z,97.80
2018-03-27T11:29:20.397Z,97.70
2018-03-27T11:31:49.516Z,95.40
2018-03-27T11:34:17.841Z,95.40
2018-03-27T11:36:46.995Z,94.50
2018-03-27T11:39:15.326Z,94.40
2018-03-27T11:41:44.742Z,92.10
2018-03-27T11:44:13.086Z,92.00
2018-03-27T11:46:41.442Z,90.50
2018-03-27T11:49:09.766Z,90.10
2018-03-27T11:51:38.106Z,90.00
2018-03-27T11:54:06.519Z,87.30
2018-03-27T11:56:34.823Z,79.70
2018-03-27T11:59:03.154Z,76.60
2018-03-27T12:01:31.504Z,73.60
2018-03-27T12:03:59.815Z,70.00
2018-03-27T12:06:28.897Z,69.40
2018-03-27T12:08:57.242Z,69.20
2018-03-27T12:11:25.562Z,66.80
2018-03-27T12:13:54.681Z,73.50
2018-03-27T12:16:22.989Z,73.40
2018-03-27T12:18:51.372Z,73.20
2018-03-27T12:21:19.679Z,74.10
2018-03-27T12:23:48.039Z,76.90
2018-03-27T12:26:17.153Z,73.30
2018-03-27T12:28:45.493Z,73.20
2018-03-27T12:31:13.807Z,71.50
2018-03-27T12:33:42.141Z,71.40
2018-03-27T12:36:10.458Z,70.20
2018-03-27T12:38:38.807Z,69.50
2018-03-27T12:41:07.131Z,68.70
2018-03-27T12:43:36.241Z,72.00
2018-03-27T12:46:05.298Z,73.60
2018-03-27T12:48:33.651Z,73.50
2018-03-27T12:51:01.995Z,75.40
2018-03-27T12:53:30.570Z,75.70
2018-03-27T12:55:58.935Z,76.00
2018-03-27T12:58:27.254Z,76.10
2018-03-27T13:00:55.620Z,77.30
2018-03-27T13:03:24.185Z,75.60
2018-03-27T13:05:52.547Z,75.10
2018-03-27T13:08:21.627Z,76.30
2018-03-27T13:10:49.974Z,76.20
2018-03-27T13:13:18.282Z,77.70
2018-03-27T13:15:46.622Z,75.40
2018-03-27T13:18:14.975Z,74.70
2018-03-27T13:20:43.326Z,75.80
2018-03-27T13:23:12.423Z,77.70
2018-03-27T13:25:40.754Z,77.50
2018-03-27T13:28:09.066Z,77.20
2018-03-27T13:30:37.400Z,77.70
2018-03-27T13:33:05.702Z,76.20
2018-03-27T13:35:34.042Z,74.00
2018-03-27T13:38:02.362Z,75.00
2018-03-27T13:40:31.505Z,75.70
2018-03-27T13:42:59.816Z,75.70
2018-03-27T13:45:28.162Z,76.00
2018-03-27T13:47:56.486Z,75.60
2018-03-27T13:50:25.591Z,77.30
2018-03-27T13:52:53.975Z,77.20
2018-03-27T13:55:22.290Z,77.40
2018-03-27T13:57:50.641Z,77.60
2018-03-27T14:00:19.740Z,76.20
2018-03-27T14:02:48.128Z,76.20
2018-03-27T14:05:16.453Z,77.60
2018-03-27T14:07:45.601Z,78.90
2018-03-27T14:10:13.957Z,78.80
2018-03-27T14:12:42.313Z,78.90
2018-03-27T14:15:10.618Z,78.50
2018-03-27T14:17:38.946Z,77.90
2018-03-27T14:20:07.334Z,75.80
2018-03-27T14:22:35.658Z,75.10
2018-03-27T14:25:04.727Z,79.50
2018-03-27T14:27:33.061Z,79.40
2018-03-27T14:30:01.369Z,82.10
2018-03-27T14:32:29.744Z,85.60
2018-03-27T14:34:58.866Z,90.30
2018-03-27T14:37:27.234Z,90.30
2018-03-27T14:39:56.328Z,90.90
2018-03-27T14:42:24.689Z,90.90
2018-03-27T14:44:52.991Z,91.50
2018-03-27T14:47:22.134Z,91.90
2018-03-27T14:49:50.449Z,91.90
2018-03-27T14:52:18.799Z,92.40
2018-03-27T14:54:47.093Z,92.40
2018-03-27T14:57:15.718Z,92.30
2018-03-27T14:59:44.062Z,92.60
2018-03-27T15:02:12.408Z,92.60
2018-03-27T15:04:40.757Z,92.70
2018-03-27T15:07:09.102Z,93.00
2018-03-27T15:09:37.461Z,93.30
2018-03-27T15:12:05.775Z,94.50
2018-03-27T15:14:34.870Z,95.60
2018-03-27T15:17:03.955Z,95.50
2018-03-27T15:19:32.286Z,95.40
2018-03-27T15:22:00.660Z,95.50
2018-03-27T15:24:29.643Z,95.90
2018-03-27T15:26:58.003Z,96.40
2018-03-27T15:29:26.479Z,96.40
2018-03-27T15:31:54.790Z,96.50
2018-03-27T15:34:23.436Z,96.40
2018-03-27T15:36:51.774Z,96.50
2018-03-27T15:39:20.134Z,96.90
2018-03-27T15:41:48.455Z,96.90
2018-03-27T15:44:17.592Z,96.30
2018-03-27T15:46:45.908Z,96.30
2018-03-27T15:49:14.250Z,96.40
2018-03-27T15:51:42.558Z,96.50
2018-03-27T15:54:10.918Z,96.70
2018-03-27T15:56:39.236Z,96.60
2018-03-27T15:59:08.318Z,96.90
2018-03-27T16:01:37.436Z,97.10
2018-03-27T16:04:05.746Z,97.10
2018-03-27T16:06:34.096Z,97.10
2018-03-27T16:09:03.165Z,97.10
2018-03-27T16:11:32.315Z,97.50
2018-03-27T16:14:00.631Z,97.40
2018-03-27T16:16:28.962Z,97.50
2018-03-27T16:18:57.297Z,97.50
2018-03-27T16:21:26.406Z,98.00
2018-03-27T16:23:54.718Z,98.00
2018-03-27T16:26:23.075Z,98.00
2018-03-27T16:28:51.642Z,97.90
2018-03-27T16:31:19.989Z,98.20
2018-03-27T16:33:49.081Z,98.60
2018-03-27T16:36:17.411Z,98.50
2018-03-27T16:38:45.743Z,98.60
2018-03-27T16:41:14.114Z,98.80
2018-03-27T16:43:42.421Z,99.20
2018-03-27T16:46:10.774Z,98.80
2018-03-27T16:48:39.082Z,99.00
2018-03-27T16:51:07.453Z,99.30
2018-03-27T16:53:35.784Z,99.40
2018-03-27T16:56:04.460Z,99.90
2018-03-27T16:58:32.771Z,99.90
2018-03-27T17:01:01.082Z,99.90
2018-03-27T17:03:29.428Z,99.90
2018-03-27T17:05:58.630Z,99.90
2018-03-27T17:08:27.723Z,99.90
2018-03-27T17:10:56.136Z,99.90
2018-03-27T17:13:24.494Z,99.90
2018-03-27T17:15:52.825Z,99.90
2018-03-27T17:18:21.154Z,99.90
2018-03-27T17:20:50.214Z,99.90
2018-03-27T17:23:18.557Z,99.90
2018-03-27T17:25:46.891Z,99.90
2018-03-27T17:28:15.243Z,99.90
2018-03-27T17:30:43.530Z,99.90
2018-03-27T17:33:11.863Z,99.90
2018-03-27T17:35:40.194Z,99.90
2018-03-27T17:38:09.296Z,99.90
2018-03-27T17:40:37.630Z,99.90
2018-03-27T17:43:05.966Z,99.90
2018-03-27T17:45:34.270Z,99.90
2018-03-27T17:48:02.618Z,99.90
2018-03-27T17:50:30.968Z,99.90
2018-03-27T17:52:59.297Z,99.90
2018-03-27T17:55:27.618Z,99.90
2018-03-27T17:57:56.517Z,99.90
2018-03-27T18:00:25.595Z,99.90
2018-03-27T18:02:54.686Z,99.90
2018-03-27T18:05:23.027Z,99.90
2018-03-27T18:07:51.331Z,99.90
2018-03-27T18:10:19.661Z,99.90
2018-03-27T18:12:47.990Z,99.90
2018-03-27T18:15:17.123Z,99.90
2018-03-27T18:17:46.196Z,99.90
2018-03-27T18:20:14.565Z,99.90
2018-03-27T18:22:42.879Z,99.90
2018-03-27T18:25:11.213Z,99.90
2018-03-27T18:27:39.517Z,99.90
2018-03-27T18:30:08.622Z,99.90
2018-03-27T18:32:36.946Z,99.90
2018-03-27T18:35:05.287Z,99.90
2018-03-27T18:37:33.602Z,99.90
2018-03-27T18:40:01.958Z,99.90
2018-03-27T18:42:30.272Z,99.90
2018-03-27T18:44:58.615Z,99.90
2018-03-27T18:47:27.121Z,99.90
2018-03-27T18:49:55.743Z,99.90
2018-03-27T18:52:24.819Z,99.90
2018-03-27T18:54:53.951Z,99.90
2018-03-27T18:57:22.278Z,99.90
2018-03-27T18:59:50.632Z,99.90
2018-03-27T19:02:18.943Z,99.90
2018-03-27T19:04:47.319Z,99.90
2018-03-27T19:07:15.667Z,99.90
2018-03-27T19:09:44.022Z,99.90
2018-03-27T19:12:12.350Z,99.90
2018-03-27T19:14:40.650Z,99.90
2018-03-27T19:17:09.755Z,99.90
2018-03-27T19:19:38.099Z,99.90
2018-03-27T19:22:06.438Z,99.90
2018-03-27T19:24:34.738Z,99.90
2018-03-27T19:27:03.137Z,99.90
2018-03-27T19:29:31.430Z,99.90
2018-03-27T19:32:00.534Z,99.90
2018-03-27T19:34:28.869Z,99.90
2018-03-27T19:36:57.226Z,99.90
2018-03-27T19:39:25.713Z,99.90
2018-03-27T19:41:54.062Z,99.90
2018-03-27T19:44:22.415Z,99.90
2018-03-27T19:46:50.764Z,99.90
2018-03-27T19:49:19.854Z,99.90
2018-03-27T19:51:48.214Z,99.90
2018-03-27T19:54:16.542Z,99.90
2018-03-27T19:56:44.855Z,99.90
2018-03-27T19:59:13.204Z,99.90
2018-03-27T20:01:42.260Z,99.90
2018-03-27T20:06:45.295Z,99.90
2018-03-27T20:09:13.651Z,99.90
2018-03-27T20:11:41.987Z,99.90
2018-03-27T20:14:10.337Z,99.90
2018-03-27T20:16:38.638Z,99.90
2018-03-27T20:19:06.974Z,99.90
2018-03-27T20:21:36.079Z,99.90
2018-03-27T20:24:04.439Z,99.90
2018-03-27T20:26:32.767Z,99.90
2018-03-27T20:29:01.958Z,99.90
2018-03-27T20:31:30.258Z,99.90
2018-03-27T20:33:58.608Z,99.90
2018-03-27T20:39:24.558Z,99.90
2018-03-27T20:41:52.870Z,99.90
2018-03-27T20:44:21.210Z,99.90
2018-03-27T20:46:49.518Z,99.90
2018-03-27T20:49:18.634Z,99.90
2018-03-27T20:51:47.806Z,99.90
2018-03-27T20:54:16.153Z,99.90
2018-03-27T20:56:44.470Z,99.90
2018-03-27T20:59:12.797Z,99.90
2018-03-27T21:01:41.131Z,99.90
2018-03-27T21:07:08.738Z,99.90
2018-03-27T21:09:37.087Z,99.90
2018-03-27T21:12:05.398Z,99.90
2018-03-27T21:14:33.758Z,99.90
2018-03-27T21:17:02.829Z,99.90
2018-03-27T21:19:31.126Z,99.90
2018-03-27T21:21:59.461Z,99.90
2018-03-27T21:24:27.783Z,99.90
2018-03-27T21:26:56.863Z,99.90
2018-03-27T21:29:25.945Z,99.90
2018-03-27T21:31:54.241Z,99.90
2018-03-27T21:34:23.448Z,99.90
2018-03-27T21:36:51.769Z,99.90
2018-03-27T21:39:20.110Z,99.90
2018-03-27T21:41:48.438Z,99.90
2018-03-27T21:44:16.879Z,99.90
2018-03-27T21:46:45.239Z,99.90
2018-03-27T21:49:14.325Z,99.90
2018-03-27T21:51:43.398Z,99.90
2018-03-27T21:54:12.503Z,99.90
2018-03-27T21:56:41.586Z,99.90
2018-03-27T21:59:09.997Z,99.90
2018-03-27T22:01:38.343Z,99.90
2018-03-27T22:04:06.676Z,99.90
2018-03-27T22:06:35.032Z,99.90
2018-03-27T22:09:03.357Z,99.90
2018-03-27T22:11:31.716Z,99.90
2018-03-27T22:14:00.031Z,99.90
2018-03-27T22:16:28.330Z,99.90
2018-03-27T22:18:57.689Z,99.90
2018-03-27T22:21:26.106Z,99.90
2018-03-27T22:23:55.170Z,99.90
2018-03-27T22:26:23.502Z,99.90
2018-03-27T22:28:52.168Z,99.90
2018-03-27T22:31:20.498Z,99.90
2018-03-27T22:33:48.827Z,99.90
2018-03-27T22:36:17.150Z,99.90
2018-03-27T22:38:45.690Z,99.90
2018-03-27T22:41:14.051Z,99.90
2018-03-27T22:43:42.399Z,99.90
2018-03-27T22:46:10.718Z,99.90
2018-03-27T22:48:40.418Z,99.90
2018-03-27T22:51:08.750Z,99.90
2018-03-27T22:53:37.053Z,99.90
2018-03-27T22:56:06.147Z,99.90
2018-03-27T22:58:35.246Z,99.90
2018-03-27T23:01:04.317Z,99.90
2018-03-27T23:03:32.747Z,99.90
2018-03-27T23:06:01.055Z,99.90
2018-03-27T23:08:29.402Z,99.90
2018-03-27T23:10:57.722Z,99.90
2018-03-27T23:13:26.844Z,99.90
2018-03-27T23:15:55.921Z,99.90
2018-03-27T23:18:24.279Z,99.90
2018-03-27T23:20:52.578Z,99.90
2018-03-27T23:23:20.890Z,99.90
2018-03-27T23:25:49.228Z,99.90
2018-03-27T23:28:17.559Z,99.90
2018-03-27T23:30:45.854Z,99.90
2018-03-27T23:33:14.191Z,99.90
2018-03-27T23:35:43.322Z,99.90
2018-03-27T23:38:11.626Z,99.90
2018-03-27T23:40:39.942Z,99.90
2018-03-27T23:43:08.525Z,99.90
2018-03-27T23:45:37.622Z,99.90
2018-03-27T23:48:06.721Z,99.90
2018-03-27T23:50:35.046Z,99.90
2018-03-27T23:53:03.349Z,99.90
2018-03-27T23:55:32.458Z,99.90
2018-03-27T23:58:00.764Z,99.90
